Time;durP1;ratioP1;P1;durP2;ratioP2;P2;SDS_P1;SDS_P2;PMS_P1;PMS_P2;Temp;Humidity;BMP_temperature;BMP_pressure;BME280_temperature;BME280_humidity;BME280_pressure;Samples;Min_cycle;Max_cycle;Signal;HPM_P1;HPM_P2
2021/05/08 00:00:31;;;;;;;1.92;0.50;;;10.10;85.00;;;;;;5040237;28;20071;-71
2021/05/08 00:02:57;;;;;;;0.73;0.40;;;10.20;84.40;;;;;;5039944;28;20117;-71
2021/05/08 00:05:23;;;;;;;0.95;0.40;;;10.20;84.10;;;;;;5039776;28;20028;-71
2021/05/08 00:07:49;;;;;;;0.95;0.40;;;10.30;84.40;;;;;;5039686;28;20029;-71
2021/05/08 00:10:16;;;;;;;3.50;0.47;;;10.20;84.80;;;;;;5039706;28;20071;-71
2021/05/08 00:12:43;;;;;;;2.90;0.55;;;10.10;84.60;;;;;;5040060;28;20021;-71
2021/05/08 00:15:12;;;;;;;0.98;0.50;;;10.10;84.60;;;;;;5039907;28;20044;-71
2021/05/08 00:17:39;;;;;;;1.77;0.60;;;10.10;84.40;;;;;;5039654;28;20056;-71
2021/05/08 00:20:08;;;;;;;0.80;0.35;;;10.10;83.80;;;;;;5039878;28;20017;-71
2021/05/08 00:22:34;;;;;;;3.20;0.60;;;10.10;84.20;;;;;;5039841;28;20321;-71
2021/05/08 00:25:00;;;;;;;0.70;0.40;;;10.10;84.20;;;;;;5039697;28;20156;-71
2021/05/08 00:27:26;;;;;;;1.10;0.40;;;10.10;83.80;;;;;;5039656;28;20333;-71
2021/05/08 00:29:51;;;;;;;1.85;0.50;;;10.00;84.20;;;;;;5039336;28;20438;-71
2021/05/08 00:32:17;;;;;;;1.88;0.38;;;9.80;84.60;;;;;;5039639;28;20033;-71
2021/05/08 00:34:43;;;;;;;1.70;0.60;;;9.80;85.10;;;;;;5039266;28;20366;-71
2021/05/08 00:37:09;;;;;;;1.13;0.30;;;9.80;85.50;;;;;;5039543;28;20037;-71
2021/05/08 00:39:34;;;;;;;1.27;0.57;;;9.70;85.80;;;;;;5039208;28;20048;-71
2021/05/08 00:42:00;;;;;;;0.88;0.47;;;9.70;85.80;;;;;;5039183;28;20064;-71
2021/05/08 00:44:26;;;;;;;2.65;0.50;;;9.70;86.20;;;;;;5039394;28;20025;-71
2021/05/08 00:46:52;;;;;;;1.40;0.55;;;9.70;86.20;;;;;;5039103;28;20472;-71
2021/05/08 00:49:20;;;;;;;1.63;0.73;;;9.60;86.20;;;;;;5039266;28;20049;-71
2021/05/08 00:51:46;;;;;;;3.03;0.43;;;9.60;86.30;;;;;;5039322;28;20022;-71
2021/05/08 00:54:12;;;;;;;1.27;0.60;;;9.60;86.20;;;;;;5039319;28;20349;-71
2021/05/08 00:56:38;;;;;;;2.70;0.50;;;9.60;85.10;;;;;;5038871;28;20030;-71
2021/05/08 00:59:04;;;;;;;1.10;0.70;;;9.70;84.90;;;;;;5038910;28;20056;-71
2021/05/08 01:01:30;;;;;;;0.75;0.50;;;9.70;84.10;;;;;;5039145;28;20032;-71
2021/05/08 01:03:55;;;;;;;0.77;0.32;;;9.70;84.40;;;;;;5038733;28;20112;-71
2021/05/08 01:06:21;;;;;;;4.25;0.55;;;9.60;84.40;;;;;;5039051;28;20045;-71
2021/05/08 01:08:47;;;;;;;1.42;0.68;;;9.60;85.10;;;;;;5038902;28;20333;-71
2021/05/08 01:11:13;;;;;;;1.30;0.57;;;9.50;87.10;;;;;;5038944;28;20017;-71
2021/05/08 01:13:39;;;;;;;2.58;0.68;;;9.40;86.90;;;;;;5038854;28;20119;-71
2021/05/08 01:16:05;;;;;;;1.35;0.60;;;9.40;84.90;;;;;;5038846;28;20433;-71
2021/05/08 01:18:32;;;;;;;2.53;0.63;;;9.30;84.80;;;;;;5038446;28;20045;-71
2021/05/08 01:20:58;;;;;;;1.83;0.50;;;9.30;84.10;;;;;;5037425;28;20037;-71
2021/05/08 01:23:24;;;;;;;0.95;0.40;;;9.20;83.60;;;;;;5038784;28;20022;-71
2021/05/08 01:25:50;;;;;;;1.40;0.40;;;9.20;84.30;;;;;;5038610;28;20044;-71
2021/05/08 01:28:16;;;;;;;0.40;0.35;;;9.20;83.50;;;;;;5038270;28;20601;-71
2021/05/08 01:30:42;;;;;;;1.98;0.47;;;9.20;82.70;;;;;;5038210;28;20061;-71
2021/05/08 01:33:08;;;;;;;0.60;0.35;;;9.30;81.60;;;;;;5038525;28;20025;-71
2021/05/08 01:35:35;;;;;;;2.28;0.90;;;9.30;81.80;;;;;;5038392;28;20339;-71
2021/05/08 01:38:01;;;;;;;0.55;0.25;;;9.30;82.10;;;;;;5038109;28;20021;-71
2021/05/08 01:40:38;;;;;;;1.10;0.50;;;9.30;82.20;;;;;;5037942;28;20033;-71
2021/05/08 01:43:04;;;;;;;0.55;0.40;;;9.20;82.30;;;;;;5038104;28;20025;-71
2021/05/08 01:45:30;;;;;;;1.30;0.40;;;9.20;82.20;;;;;;5038216;28;20030;-71
2021/05/08 01:47:58;;;;;;;0.65;0.40;;;9.20;82.70;;;;;;5038197;28;20294;-71
2021/05/08 01:50:25;;;;;;;2.75;0.40;;;9.10;82.80;;;;;;5038194;28;20026;-71
2021/05/08 01:52:52;;;;;;;0.65;0.40;;;9.10;83.40;;;;;;5037484;28;20065;-71
2021/05/08 01:55:20;;;;;;;1.10;0.52;;;9.00;82.70;;;;;;5037702;28;20030;-71
2021/05/08 01:57:51;;;;;;;1.23;0.50;;;9.00;82.30;;;;;;5038087;28;20412;-71
2021/05/08 02:00:26;;;;;;;3.55;0.85;;;9.00;82.40;;;;;;5037653;28;20041;-71
2021/05/08 02:02:53;;;;;;;0.70;0.40;;;9.00;82.20;;;;;;5037990;28;20026;-71
2021/05/08 02:05:20;;;;;;;2.55;0.45;;;8.90;82.30;;;;;;5037434;28;20048;-71
2021/05/08 02:07:46;;;;;;;2.40;0.60;;;8.90;82.40;;;;;;5037509;28;20025;-71
2021/05/08 02:10:13;;;;;;;0.45;0.30;;;8.80;85.00;;;;;;5037771;28;20101;-71
2021/05/08 02:12:39;;;;;;;0.68;0.32;;;8.70;83.90;;;;;;5037499;28;20021;-71
2021/05/08 02:15:10;;;;;;;0.50;0.32;;;8.70;82.60;;;;;;5037644;28;20030;-71
2021/05/08 02:17:36;;;;;;;2.38;0.98;;;8.70;82.90;;;;;;5037155;28;20334;-71
2021/05/08 02:20:07;;;;;;;3.35;0.55;;;8.80;83.20;;;;;;5037362;28;20017;-71
2021/05/08 02:22:32;;;;;;;2.05;0.50;;;8.80;82.90;;;;;;5037289;28;20030;-71
2021/05/08 02:24:58;;;;;;;1.17;0.20;;;8.80;84.40;;;;;;5037497;28;20109;-71
2021/05/08 02:27:24;;;;;;;1.17;0.60;;;8.70;84.60;;;;;;5037396;28;20430;-71
2021/05/08 02:29:50;;;;;;;0.77;0.40;;;8.60;84.30;;;;;;5037149;28;20108;-71
2021/05/08 02:32:15;;;;;;;1.38;0.50;;;8.50;85.20;;;;;;5037456;28;20022;-71
2021/05/08 02:34:41;;;;;;;0.95;0.55;;;8.40;86.00;;;;;;5036032;28;20438;-71
2021/05/08 02:37:07;;;;;;;1.40;0.60;;;8.30;83.70;;;;;;5037333;28;20026;-71
2021/05/08 02:39:32;;;;;;;1.67;0.50;;;8.40;85.00;;;;;;5036981;28;20026;-71
2021/05/08 02:41:58;;;;;;;1.02;0.40;;;8.50;84.90;;;;;;5037308;28;20021;-71
2021/05/08 02:44:24;;;;;;;2.05;0.32;;;8.50;85.40;;;;;;5036877;28;20421;-71
2021/05/08 02:46:50;;;;;;;1.48;0.45;;;8.40;84.90;;;;;;5036906;28;20049;-71
2021/05/08 02:49:15;;;;;;;0.82;0.32;;;8.30;83.10;;;;;;5037124;28;20032;-71
2021/05/08 02:51:41;;;;;;;2.38;0.47;;;8.30;83.00;;;;;;5037211;28;20437;-71
2021/05/08 02:54:07;;;;;;;1.35;0.40;;;8.20;83.00;;;;;;5037143;28;20104;-71
2021/05/08 02:56:32;;;;;;;2.22;0.30;;;8.20;83.30;;;;;;5036788;28;20444;-71
2021/05/08 02:58:58;;;;;;;1.40;0.28;;;8.20;82.80;;;;;;5037072;28;20025;-71
2021/05/08 03:01:24;;;;;;;0.88;0.30;;;8.20;81.70;;;;;;5036754;28;20022;-71
2021/05/08 03:03:50;;;;;;;0.52;0.32;;;8.20;81.50;;;;;;5036898;28;20030;-71
2021/05/08 03:06:15;;;;;;;1.02;0.40;;;8.30;81.90;;;;;;5036673;28;20038;-71
2021/05/08 03:08:41;;;;;;;0.70;0.30;;;8.30;82.70;;;;;;5036566;28;20044;-71
2021/05/08 03:11:07;;;;;;;2.15;0.57;;;8.30;82.80;;;;;;5036878;28;20021;-71
2021/05/08 03:13:32;;;;;;;0.52;0.30;;;8.30;80.80;;;;;;5036558;28;20116;-71
2021/05/08 03:15:58;;;;;;;0.45;0.30;;;8.40;80.60;;;;;;5036583;28;20017;-71
2021/05/08 03:18:24;;;;;;;0.75;0.45;;;8.50;80.60;;;;;;5036381;28;20084;-71
2021/05/08 03:20:49;;;;;;;0.55;0.40;;;8.50;79.70;;;;;;5036507;28;20033;-71
2021/05/08 03:23:15;;;;;;;2.75;0.32;;;8.60;80.50;;;;;;5036846;28;20037;-71
2021/05/08 03:25:41;;;;;;;1.15;0.40;;;8.50;80.50;;;;;;5036422;28;20034;-71
2021/05/08 03:28:06;;;;;;;0.68;0.40;;;8.40;82.80;;;;;;5036675;28;20053;-71
2021/05/08 03:30:32;;;;;;;0.68;0.35;;;8.20;81.50;;;;;;5036406;28;20381;-71
2021/05/08 03:32:58;;;;;;;1.58;0.50;;;8.20;80.70;;;;;;5036458;28;20036;-71
2021/05/08 03:35:24;;;;;;;0.88;0.40;;;8.30;80.40;;;;;;5036620;28;20052;-71
2021/05/08 03:37:49;;;;;;;0.45;0.30;;;8.40;80.40;;;;;;5036672;28;20070;-71
2021/05/08 03:40:15;;;;;;;1.77;0.40;;;8.50;79.50;;;;;;5036641;28;20026;-71
2021/05/08 03:42:41;;;;;;;0.50;0.30;;;8.60;78.70;;;;;;5036312;28;20087;-71
2021/05/08 03:45:07;;;;;;;0.80;0.40;;;8.70;78.30;;;;;;5036532;28;20025;-71
2021/05/08 03:47:33;;;;;;;1.05;0.50;;;8.70;78.50;;;;;;5036223;28;20367;-71
2021/05/08 03:49:59;;;;;;;1.30;0.40;;;8.70;79.40;;;;;;5036596;28;20096;-71
2021/05/08 03:52:24;;;;;;;0.70;0.40;;;8.70;79.30;;;;;;5036633;28;20029;-71
2021/05/08 03:54:50;;;;;;;0.63;0.30;;;8.70;79.50;;;;;;5036470;28;20026;-71
2021/05/08 03:57:16;;;;;;;0.88;0.43;;;8.60;79.50;;;;;;5036155;28;20036;-71
2021/05/08 03:59:42;;;;;;;2.25;0.30;;;8.60;79.00;;;;;;5036450;28;20030;-71
2021/05/08 04:02:07;;;;;;;2.45;0.40;;;8.60;79.10;;;;;;5036195;28;20033;-71
2021/05/08 04:04:33;;;;;;;0.70;0.40;;;8.60;79.70;;;;;;5036339;28;20057;-71
2021/05/08 04:06:59;;;;;;;0.80;0.40;;;8.60;80.10;;;;;;5036430;28;20021;-71
2021/05/08 04:09:24;;;;;;;0.90;0.40;;;8.60;80.20;;;;;;5036314;28;20053;-71
2021/05/08 04:11:50;;;;;;;1.38;0.38;;;8.60;79.50;;;;;;5036376;28;20099;-71
2021/05/08 04:14:16;;;;;;;1.13;0.40;;;8.60;79.20;;;;;;5035951;28;20025;-71
2021/05/08 04:16:42;;;;;;;0.85;0.35;;;8.60;78.90;;;;;;5039768;28;20029;-71
2021/05/08 04:19:07;;;;;;;0.80;0.30;;;8.60;79.00;;;;;;5039491;28;20054;-71
2021/05/08 04:21:33;;;;;;;0.40;0.25;;;8.60;79.10;;;;;;5039911;28;20030;-71
2021/05/08 04:24:00;;;;;;;2.38;0.40;;;8.60;78.20;;;;;;5039783;28;20520;-71
2021/05/08 04:26:26;;;;;;;2.95;0.50;;;8.60;78.50;;;;;;5039789;28;20040;-71
2021/05/08 04:28:52;;;;;;;1.95;0.55;;;8.60;79.10;;;;;;5039645;28;20105;-71
2021/05/08 04:31:18;;;;;;;0.77;0.40;;;8.60;78.60;;;;;;5039689;28;20160;-71
2021/05/08 04:33:43;;;;;;;2.33;0.60;;;8.60;81.60;;;;;;5039554;28;20376;-71
2021/05/08 04:36:09;;;;;;;0.68;0.30;;;8.60;81.60;;;;;;5039597;28;20044;-71
2021/05/08 04:38:39;;;;;;;3.05;0.28;;;8.60;81.00;;;;;;5039324;28;20037;-71
2021/05/08 04:41:04;;;;;;;0.50;0.30;;;8.60;82.50;;;;;;5039196;28;20425;-71
2021/05/08 04:43:30;;;;;;;4.88;0.40;;;8.70;83.50;;;;;;5039432;28;20025;-71
2021/05/08 04:45:56;;;;;;;0.40;0.30;;;8.70;82.80;;;;;;5039163;28;20029;-71
2021/05/08 04:48:30;;;;;;;0.50;0.30;;;8.70;82.20;;;;;;5039362;28;20022;-71
2021/05/08 04:50:56;;;;;;;1.80;0.60;;;8.70;81.40;;;;;;5039365;28;20302;-71
2021/05/08 04:53:22;;;;;;;0.40;0.22;;;8.70;78.20;;;;;;5039188;28;20079;-71
2021/05/08 04:55:48;;;;;;;1.10;0.40;;;8.80;77.50;;;;;;5039207;28;20318;-71
2021/05/08 04:58:14;;;;;;;0.90;0.40;;;8.90;78.00;;;;;;5039215;28;20029;-71
2021/05/08 05:00:40;;;;;;;1.48;0.50;;;9.10;78.70;;;;;;5039152;28;20040;-71
2021/05/08 05:03:06;;;;;;;1.05;0.38;;;9.40;80.00;;;;;;5039157;28;20033;-71
2021/05/08 05:05:32;;;;;;;1.83;0.40;;;9.60;77.80;;;;;;5038962;28;20103;-71
2021/05/08 05:07:57;;;;;;;2.10;0.32;;;9.70;78.40;;;;;;5038994;28;20025;-71
2021/05/08 05:10:23;;;;;;;0.63;0.40;;;9.90;77.90;;;;;;5038677;28;20025;-71
2021/05/08 05:12:49;;;;;;;1.77;0.40;;;10.00;75.30;;;;;;5038677;28;20185;-71
2021/05/08 05:15:19;;;;;;;5.93;0.57;;;10.00;76.00;;;;;;5038492;28;20049;-71
2021/05/08 05:17:45;;;;;;;0.70;0.30;;;10.00;75.70;;;;;;5038593;28;20351;-71
2021/05/08 05:20:12;;;;;;;0.88;0.35;;;10.10;75.20;;;;;;5038552;28;20109;-71
2021/05/08 05:22:38;;;;;;;1.33;0.32;;;10.20;75.90;;;;;;5038444;28;20034;-71
2021/05/08 05:25:06;;;;;;;0.57;0.30;;;10.30;74.40;;;;;;5038643;28;20100;-71
2021/05/08 05:27:32;;;;;;;0.70;0.40;;;10.30;74.20;;;;;;5037492;28;20108;-71
2021/05/08 05:29:57;;;;;;;1.27;0.40;;;10.30;74.80;;;;;;5038320;28;20413;-71
2021/05/08 05:32:23;;;;;;;0.60;0.40;;;10.30;74.50;;;;;;5038624;28;20026;-71
2021/05/08 05:34:49;;;;;;;0.70;0.40;;;10.30;74.40;;;;;;5038438;28;20349;-71
2021/05/08 05:37:15;;;;;;;1.42;0.30;;;10.20;74.70;;;;;;5038446;28;20310;-71
2021/05/08 05:39:40;;;;;;;2.10;0.40;;;10.10;75.10;;;;;;5038444;28;20370;-71
2021/05/08 05:42:06;;;;;;;0.70;0.40;;;10.00;74.80;;;;;;5038110;28;20025;-71
2021/05/08 05:44:32;;;;;;;1.77;0.57;;;9.90;76.50;;;;;;5037955;28;20109;-71
2021/05/08 05:46:58;;;;;;;0.80;0.50;;;9.80;75.90;;;;;;5038287;28;20048;-71
2021/05/08 05:49:23;;;;;;;0.77;0.30;;;9.80;76.80;;;;;;5038165;28;20482;-71
2021/05/08 05:51:49;;;;;;;1.02;0.50;;;9.90;75.90;;;;;;5037889;28;20429;-71
2021/05/08 05:54:15;;;;;;;0.90;0.40;;;10.00;76.00;;;;;;5038195;28;20079;-71
2021/05/08 05:56:41;;;;;;;0.75;0.38;;;10.10;75.50;;;;;;5037822;28;20033;-71
2021/05/08 05:59:07;;;;;;;0.70;0.40;;;10.20;75.50;;;;;;5037739;28;20022;-71
2021/05/08 06:01:33;;;;;;;1.42;0.40;;;10.20;74.40;;;;;;5037745;28;20033;-71
2021/05/08 06:03:59;;;;;;;0.70;0.22;;;10.20;73.50;;;;;;5037922;28;20029;-71
2021/05/08 06:06:24;;;;;;;0.50;0.30;;;10.30;72.10;;;;;;5037736;28;20112;-71
2021/05/08 06:08:50;;;;;;;3.70;0.50;;;10.40;73.90;;;;;;5037789;28;20033;-71
2021/05/08 06:11:16;;;;;;;0.80;0.40;;;10.60;74.10;;;;;;5037838;28;20060;-71
2021/05/08 06:13:42;;;;;;;0.65;0.30;;;10.70;73.80;;;;;;5037413;28;20307;-71
2021/05/08 06:16:08;;;;;;;2.45;0.57;;;10.90;72.30;;;;;;5037682;28;20067;-71
2021/05/08 06:18:34;;;;;;;0.70;0.40;;;11.20;72.10;;;;;;5037368;28;20350;-71
2021/05/08 06:21:01;;;;;;;1.77;0.28;;;11.70;70.20;;;;;;5037616;28;20060;-71
2021/05/08 06:23:27;;;;;;;0.50;0.30;;;12.00;67.60;;;;;;5037666;28;20033;-71
2021/05/08 06:25:53;;;;;;;5.50;1.35;;;12.40;67.90;;;;;;5037545;28;20291;-71
2021/05/08 06:28:19;;;;;;;0.90;0.50;;;12.90;66.60;;;;;;5037130;28;20378;-71
2021/05/08 06:30:45;;;;;;;0.63;0.30;;;13.60;66.10;;;;;;5037471;28;20030;-71
2021/05/08 06:33:11;;;;;;;1.00;0.40;;;14.20;63.40;;;;;;5037451;28;20026;-71
2021/05/08 06:35:37;;;;;;;0.70;0.40;;;14.60;61.90;;;;;;5037327;28;20029;-71
2021/05/08 06:38:02;;;;;;;1.15;0.40;;;15.30;60.90;;;;;;5036800;28;20369;-71
2021/05/08 06:40:28;;;;;;;1.77;0.30;;;16.20;59.20;;;;;;5036978;28;20029;-71
2021/05/08 06:42:54;;;;;;;1.27;0.40;;;16.70;57.10;;;;;;5037350;28;20030;-71
2021/05/08 06:45:20;;;;;;;0.43;0.22;;;17.00;56.90;;;;;;5037124;28;20060;-71
2021/05/08 06:47:51;;;;;;;0.85;0.30;;;17.10;55.40;;;;;;5036812;28;20476;-71
2021/05/08 06:50:17;;;;;;;1.77;0.38;;;17.30;55.60;;;;;;5036946;28;20444;-71
2021/05/08 06:52:42;;;;;;;0.60;0.30;;;17.40;55.00;;;;;;5036868;28;20022;-71
2021/05/08 06:55:08;;;;;;;2.63;0.20;;;17.80;55.40;;;;;;5037066;28;20033;-71
2021/05/08 06:57:34;;;;;;;0.68;0.30;;;17.70;54.90;;;;;;5036792;28;20029;-71
2021/05/08 07:00:04;;;;;;;0.75;0.32;;;17.90;53.60;;;;;;5037063;28;20056;-71
2021/05/08 07:02:30;;;;;;;0.88;0.30;;;17.90;54.40;;;;;;5037621;28;20017;-71
2021/05/08 07:04:55;;;;;;;0.80;0.40;;;18.00;57.50;;;;;;5036658;28;20425;-71
2021/05/08 07:07:21;;;;;;;1.75;0.30;;;18.10;53.80;;;;;;5036646;28;20048;-71
2021/05/08 07:09:47;;;;;;;0.52;0.30;;;18.30;54.20;;;;;;5036839;28;20021;-71
2021/05/08 07:12:13;;;;;;;0.43;0.30;;;18.50;53.60;;;;;;5037007;28;20394;-71
2021/05/08 07:14:38;;;;;;;1.33;0.40;;;18.70;52.90;;;;;;5036508;28;20036;-71
2021/05/08 07:17:04;;;;;;;1.05;0.30;;;18.80;53.10;;;;;;5036531;28;20078;-71
2021/05/08 07:19:30;;;;;;;1.77;0.55;;;18.80;54.10;;;;;;5036427;28;20049;-71
2021/05/08 07:21:55;;;;;;;0.73;0.40;;;19.00;53.00;;;;;;5036579;28;20115;-71
2021/05/08 07:24:23;;;;;;;0.88;0.30;;;19.50;53.50;;;;;;5036951;28;20033;-71
2021/05/08 07:26:49;;;;;;;0.80;0.40;;;19.60;51.40;;;;;;5036776;28;20341;-71
2021/05/08 07:29:16;;;;;;;1.10;0.30;;;19.60;51.20;;;;;;5036718;28;20064;-71
2021/05/08 07:31:41;;;;;;;0.93;0.40;;;19.50;50.00;;;;;;5036763;28;20050;-71
2021/05/08 07:34:07;;;;;;;1.25;0.50;;;19.70;50.50;;;;;;5036356;28;20371;-71
2021/05/08 07:36:33;;;;;;;3.90;0.70;;;19.90;52.70;;;;;;5036554;28;20030;-71
2021/05/08 07:38:58;;;;;;;2.88;0.60;;;19.90;51.50;;;;;;5036602;28;20029;-71
2021/05/08 07:41:24;;;;;;;1.27;0.40;;;20.00;52.30;;;;;;5036391;28;20022;-71
2021/05/08 07:43:50;;;;;;;0.75;0.40;;;20.20;50.90;;;;;;5036276;28;20029;-71
2021/05/08 07:46:16;;;;;;;1.38;0.50;;;20.50;50.90;;;;;;5036644;28;20053;-71
2021/05/08 07:48:41;;;;;;;1.30;0.50;;;20.40;50.30;;;;;;5036176;28;20385;-71
2021/05/08 07:51:07;;;;;;;2.35;0.60;;;20.30;51.70;;;;;;5039329;28;20021;-71
2021/05/08 07:53:33;;;;;;;1.15;0.60;;;20.00;51.70;;;;;;5040302;28;20138;-71
2021/05/08 07:55:59;;;;;;;4.78;0.60;;;20.20;49.00;;;;;;5040380;28;20071;-71
2021/05/08 07:58:24;;;;;;;3.35;0.88;;;20.40;51.00;;;;;;5040013;28;20333;-71
2021/05/08 08:00:50;;;;;;;0.57;0.32;;;20.70;50.50;;;;;;5040269;28;20029;-71
2021/05/08 08:03:16;;;;;;;1.52;0.65;;;21.00;52.10;;;;;;5040304;28;20421;-71
2021/05/08 08:05:41;;;;;;;0.90;0.50;;;21.20;50.50;;;;;;5040171;28;20115;-71
2021/05/08 08:08:07;;;;;;;1.25;0.50;;;21.20;47.80;;;;;;5040073;28;20036;-71
2021/05/08 08:10:33;;;;;;;1.10;0.60;;;21.20;49.50;;;;;;5040104;28;20426;-71
2021/05/08 08:12:58;;;;;;;0.90;0.38;;;21.20;48.80;;;;;;5039784;28;20025;-71
2021/05/08 08:15:24;;;;;;;1.83;0.40;;;21.20;51.40;;;;;;5039972;28;20022;-71
2021/05/08 08:17:50;;;;;;;1.23;0.55;;;21.00;50.50;;;;;;5039641;28;20515;-71
2021/05/08 08:20:15;;;;;;;2.75;0.30;;;21.00;50.80;;;;;;5039887;28;20021;-71
2021/05/08 08:22:42;;;;;;;1.13;0.45;;;20.90;48.00;;;;;;5039591;28;20303;-71
2021/05/08 08:25:13;;;;;;;1.92;0.40;;;21.00;51.20;;;;;;5039790;28;20022;-71
2021/05/08 08:27:39;;;;;;;2.17;0.50;;;21.30;50.00;;;;;;5039723;28;20021;-71
2021/05/08 08:30:08;;;;;;;0.93;0.40;;;21.50;48.50;;;;;;5039687;28;20172;-71
2021/05/08 08:32:34;;;;;;;5.68;1.23;;;21.20;47.80;;;;;;5039455;28;20017;-71
2021/05/08 08:35:00;;;;;;;1.83;0.50;;;21.10;49.00;;;;;;5039317;28;20025;-71
2021/05/08 08:37:26;;;;;;;3.35;0.50;;;21.10;51.60;;;;;;5039348;28;20034;-71
2021/05/08 08:39:52;;;;;;;1.17;0.60;;;21.20;48.90;;;;;;5039265;28;20029;-71
2021/05/08 08:42:18;;;;;;;1.55;0.60;;;21.00;48.40;;;;;;5039534;28;20056;-71
2021/05/08 08:44:44;;;;;;;1.50;0.50;;;21.10;48.20;;;;;;5039144;28;20108;-71
2021/05/08 08:47:30;;;;;;;1.73;0.73;;;21.30;48.40;;;;;;5039119;28;20117;-72
2021/05/08 08:50:12;;;;;;;0.93;0.60;;;21.10;48.00;;;;;;5039051;28;20120;-71
2021/05/08 08:52:39;;;;;;;2.20;0.68;;;21.10;49.60;;;;;;5039294;28;20048;-71
2021/05/08 08:55:07;;;;;;;1.65;0.77;;;21.20;47.70;;;;;;5039219;28;20021;-71
2021/05/08 08:57:36;;;;;;;2.00;0.60;;;21.40;52.40;;;;;;5038844;28;20438;-71
2021/05/08 09:00:16;;;;;;;1.15;0.50;;;21.50;52.20;;;;;;5038885;28;20026;-71
2021/05/08 09:02:47;;;;;;;1.13;0.60;;;21.70;47.60;;;;;;5039019;28;20018;-71
2021/05/08 09:05:15;;;;;;;0.82;0.50;;;21.70;48.80;;;;;;5038748;28;20017;-71
2021/05/08 09:07:44;;;;;;;1.08;0.50;;;21.70;49.40;;;;;;5038697;28;20049;-71
2021/05/08 09:10:22;;;;;;;1.85;0.70;;;21.80;47.60;;;;;;5038689;28;20096;-71
2021/05/08 09:12:50;;;;;;;1.55;0.50;;;21.90;52.00;;;;;;5039031;28;20026;-71
2021/05/08 09:15:44;;;;;;;0.90;0.60;;;21.90;50.50;;;;;;5038848;28;20032;-71
2021/05/08 09:18:31;;;;;;;3.95;0.70;;;22.00;49.50;;;;;;5038525;28;20073;-71
2021/05/08 09:20:57;;;;;;;2.50;0.60;;;22.10;48.20;;;;;;5038501;28;20034;-71
2021/05/08 09:23:25;;;;;;;1.92;0.60;;;22.10;47.30;;;;;;5038682;28;20037;-71
2021/05/08 09:26:01;;;;;;;0.80;0.60;;;21.90;50.30;;;;;;5038312;28;20031;-70
2021/05/08 09:28:28;;;;;;;0.77;0.60;;;21.60;48.70;;;;;;5038557;28;20044;-70
2021/05/08 09:30:55;;;;;;;1.42;0.50;;;21.80;48.40;;;;;;5038608;28;20080;-71
2021/05/08 09:33:22;;;;;;;1.13;0.60;;;21.70;53.00;;;;;;5038599;28;20060;-70
2021/05/08 09:36:08;;;;;;;1.50;0.80;;;21.90;47.40;;;;;;5038452;28;20410;-72
2021/05/08 09:38:45;;;;;;;1.27;0.70;;;21.70;48.40;;;;;;5038177;28;20112;-70
2021/05/08 09:41:13;;;;;;;1.52;0.63;;;21.70;50.20;;;;;;5038434;28;20021;-70
2021/05/08 09:43:39;;;;;;;1.70;1.00;;;21.90;48.60;;;;;;5038000;28;20467;-72
2021/05/08 09:46:06;;;;;;;3.10;1.05;;;22.20;49.80;;;;;;5038291;28;20025;-71
2021/05/08 09:48:35;;;;;;;2.45;0.68;;;22.60;49.30;;;;;;5037872;28;20028;-71
2021/05/08 09:51:25;;;;;;;2.08;0.77;;;22.60;48.10;;;;;;5038225;28;20028;-71
2021/05/08 09:54:10;;;;;;;2.60;0.80;;;22.40;50.20;;;;;;5037855;28;20156;-71
2021/05/08 09:56:37;;;;;;;2.28;1.27;;;21.90;48.10;;;;;;5038183;28;20029;-71
2021/05/08 09:59:30;;;;;;;3.55;0.90;;;21.70;51.70;;;;;;5038119;28;20103;-71
2021/05/08 10:02:05;;;;;;;0.80;0.50;;;21.70;49.60;;;;;;5038017;28;20029;-71
2021/05/08 10:04:36;;;;;;;1.17;0.73;;;22.00;49.60;;;;;;5036615;28;20040;-71
2021/05/08 10:07:22;;;;;;;1.83;0.80;;;22.10;46.10;;;;;;5037968;28;20325;-71
2021/05/08 10:09:50;;;;;;;2.03;0.70;;;22.30;48.50;;;;;;5037520;28;20457;-71
2021/05/08 10:12:21;;;;;;;1.08;0.63;;;22.30;49.30;;;;;;5037150;28;20025;-71
2021/05/08 10:14:49;;;;;;;1.77;0.85;;;22.20;50.40;;;;;;5036150;28;20033;-71
2021/05/08 10:17:18;;;;;;;1.52;0.70;;;22.40;47.60;;;;;;5044435;28;20029;-71
2021/05/08 10:19:46;;;;;;;3.83;0.85;;;22.50;45.20;;;;;;5057681;28;20053;-71
2021/05/08 10:22:13;;;;;;;1.50;0.80;;;22.50;46.30;;;;;;5057595;28;20313;-71
2021/05/08 10:24:42;;;;;;;2.13;0.73;;;22.40;48.50;;;;;;5057698;28;20317;-71
2021/05/08 10:27:09;;;;;;;1.88;0.68;;;22.20;47.30;;;;;;5057478;28;20033;-71
2021/05/08 10:29:44;;;;;;;1.60;0.75;;;22.30;50.90;;;;;;5057131;28;20025;-71
2021/05/08 10:32:11;;;;;;;;;;;22.20;47.30;;;;;;5057536;28;20051;-71
2021/05/08 10:34:39;;;;;;;1.92;0.80;;;22.10;48.20;;;;;;5056986;28;20300;-71
2021/05/08 10:37:14;;;;;;;0.80;0.60;;;21.80;47.70;;;;;;5056978;28;20031;-71
2021/05/08 10:39:47;;;;;;;2.83;0.80;;;21.80;48.60;;;;;;5057313;28;20029;-71
2021/05/08 10:42:41;;;;;;;2.08;0.60;;;22.00;48.30;;;;;;5057260;28;20079;-71
2021/05/08 10:45:19;;;;;;;0.95;0.70;;;22.30;47.60;;;;;;5056864;28;20037;-71
2021/05/08 10:47:58;;;;;;;1.02;0.52;;;22.00;48.80;;;;;;5056844;28;20037;-71
2021/05/08 10:50:34;;;;;;;1.85;0.60;;;22.20;52.40;;;;;;5056769;28;20029;-71
2021/05/08 10:53:10;;;;;;;1.15;0.60;;;22.30;47.50;;;;;;5057137;28;20063;-71
2021/05/08 10:55:57;;;;;;;2.45;0.65;;;22.10;49.60;;;;;;5056961;28;20029;-71
2021/05/08 10:58:23;;;;;;;4.90;1.33;;;22.20;51.40;;;;;;5057030;28;20057;-72
2021/05/08 11:00:52;;;;;;;2.03;0.60;;;22.40;48.90;;;;;;5056628;28;20063;-71
2021/05/08 11:03:22;;;;;;;3.78;0.88;;;22.30;52.40;;;;;;5056980;28;20040;-71
2021/05/08 11:05:56;;;;;;;1.15;0.65;;;22.30;45.60;;;;;;5056568;28;20025;-71
2021/05/08 11:08:25;;;;;;;0.80;0.65;;;21.90;47.30;;;;;;5056828;28;20083;-71
2021/05/08 11:11:04;;;;;;;6.88;0.75;;;21.60;48.10;;;;;;5056538;28;20036;-71
2021/05/08 11:13:42;;;;;;;2.33;0.70;;;21.70;49.00;;;;;;5056829;28;20294;-71
2021/05/08 11:16:19;;;;;;;1.58;0.80;;;21.70;50.80;;;;;;5056498;28;20025;-71
2021/05/08 11:18:46;;;;;;;1.58;0.80;;;21.60;51.10;;;;;;5056461;28;20059;-71
2021/05/08 11:21:15;;;;;;;1.63;0.63;;;21.60;52.40;;;;;;5056747;28;20029;-71
2021/05/08 11:23:45;;;;;;;1.63;0.70;;;21.70;51.40;;;;;;5056259;28;20060;-72
2021/05/08 11:26:23;;;;;;;2.58;0.55;;;21.80;50.90;;;;;;5059775;28;20029;-71
2021/05/08 11:28:58;;;;;;;1.58;0.60;;;21.60;49.80;;;;;;5060472;28;20429;-71
2021/05/08 11:31:25;;;;;;;1.73;0.80;;;21.20;51.50;;;;;;5060552;28;20021;-71
2021/05/08 11:33:51;;;;;;;1.08;0.73;;;20.60;46.80;;;;;;5060400;28;20052;-71
2021/05/08 11:36:18;;;;;;;1.38;0.70;;;20.50;52.70;;;;;;5060743;28;20021;-71
2021/05/08 11:38:44;;;;;;;2.55;0.60;;;20.70;47.30;;;;;;5060661;28;20025;-71
2021/05/08 11:41:24;;;;;;;0.90;0.52;;;20.20;50.90;;;;;;5060325;28;20036;-71
2021/05/08 11:43:54;;;;;;;1.13;0.40;;;20.20;51.10;;;;;;5060276;28;20437;-71
2021/05/08 11:46:23;;;;;;;1.35;0.60;;;20.40;50.40;;;;;;5060269;28;20063;-71
2021/05/08 11:48:49;;;;;;;1.63;0.60;;;20.30;49.70;;;;;;5060424;28;20029;-71
2021/05/08 11:51:15;;;;;;;0.90;0.70;;;20.20;53.50;;;;;;5060153;28;20436;-71
2021/05/08 11:53:41;;;;;;;1.08;0.60;;;20.30;54.90;;;;;;5060248;28;20029;-71
2021/05/08 11:56:06;;;;;;;1.00;0.50;;;20.40;54.10;;;;;;5060326;28;20036;-71
2021/05/08 11:58:32;;;;;;;1.27;0.70;;;20.30;51.10;;;;;;5059980;28;20415;-71
2021/05/08 12:00:58;;;;;;;1.17;0.75;;;20.30;53.00;;;;;;5060213;28;20036;-71
2021/05/08 12:03:25;;;;;;;1.10;0.70;;;19.90;48.80;;;;;;5060269;28;20033;-71
2021/05/08 12:05:51;;;;;;;1.00;0.50;;;19.60;54.90;;;;;;5059803;28;20033;-71
2021/05/08 12:08:24;;;;;;;2.15;0.70;;;19.60;51.90;;;;;;5060075;28;20025;-71
2021/05/08 12:10:53;;;;;;;6.30;0.70;;;19.60;48.60;;;;;;5060114;28;20312;-71
2021/05/08 12:13:26;;;;;;;0.80;0.60;;;19.50;59.40;;;;;;5060137;28;20316;-71
2021/05/08 12:15:59;;;;;;;1.58;0.40;;;19.40;51.80;;;;;;5059644;28;20405;-71
2021/05/08 12:18:25;;;;;;;1.20;0.60;;;19.00;55.20;;;;;;5059649;28;20399;-71
2021/05/08 12:20:51;;;;;;;1.85;0.60;;;19.10;53.70;;;;;;5059593;28;20025;-71
2021/05/08 12:23:24;;;;;;;0.85;0.50;;;19.30;56.00;;;;;;5060006;28;20115;-71
2021/05/08 12:26:05;;;;;;;1.50;0.57;;;19.50;56.60;;;;;;5059729;28;20317;-71
2021/05/08 12:28:32;;;;;;;0.95;0.55;;;19.60;54.60;;;;;;5059380;28;20086;-71
2021/05/08 12:30:59;;;;;;;1.35;0.70;;;19.70;55.00;;;;;;5059699;28;20051;-71
2021/05/08 12:33:26;;;;;;;3.72;0.50;;;19.60;53.20;;;;;;5059731;28;20363;-71
2021/05/08 12:35:53;;;;;;;1.10;0.60;;;19.50;53.50;;;;;;5058674;28;20024;-71
2021/05/08 12:38:28;;;;;;;1.75;0.55;;;19.20;52.00;;;;;;5059237;28;20115;-71
2021/05/08 12:40:54;;;;;;;2.15;0.60;;;19.20;57.50;;;;;;5059248;28;20025;-71
2021/05/08 12:43:27;;;;;;;2.00;0.70;;;19.00;51.30;;;;;;5059514;28;20159;-71
2021/05/08 12:46:11;;;;;;;1.60;0.60;;;18.70;52.30;;;;;;5059059;28;20035;-71
2021/05/08 12:48:39;;;;;;;1.08;0.60;;;18.60;55.20;;;;;;5059297;28;20037;-71
2021/05/08 12:51:25;;;;;;;2.97;0.50;;;18.80;55.40;;;;;;5059304;28;20096;-71
2021/05/08 12:54:16;;;;;;;1.97;0.60;;;18.90;54.30;;;;;;5059380;28;20033;-71